createdAt,value
2023-04-02T00:00:27.478Z,3.00
2023-04-02T00:03:54.246Z,3.50
2023-04-02T00:07:31.295Z,4.30
2023-04-02T00:10:37.954Z,4.40
2023-04-02T00:13:46.924Z,3.70
2023-04-02T00:16:52.118Z,3.50
2023-04-02T00:19:58.243Z,3.90
2023-04-02T00:23:02.150Z,3.60
2023-04-02T00:26:21.595Z,4.70
2023-04-02T00:29:24.250Z,4.60
2023-04-02T00:32:31.785Z,4.40
2023-04-02T00:35:39.419Z,4.40
2023-04-02T00:38:44.290Z,4.00
2023-04-02T00:41:48.117Z,5.40
2023-04-02T00:44:54.716Z,4.80
2023-04-02T00:48:00.513Z,4.20
2023-04-02T00:51:20.037Z,4.40
2023-04-02T00:54:47.590Z,4.60
2023-04-02T00:57:51.949Z,5.90
2023-04-02T01:00:54.667Z,5.20
2023-04-02T01:04:01.969Z,4.40
2023-04-02T01:07:12.249Z,3.80
2023-04-02T01:10:33.456Z,3.60
2023-04-02T01:14:09.276Z,3.90
2023-04-02T01:17:28.587Z,6.40
2023-04-02T01:20:42.677Z,3.80
2023-04-02T01:24:07.407Z,4.60
2023-04-02T01:27:18.839Z,3.60
2023-04-02T01:30:22.120Z,3.80
2023-04-02T01:33:29.732Z,4.20
2023-04-02T01:36:51.425Z,3.30
2023-04-02T01:40:20.144Z,3.10
2023-04-02T01:43:42.211Z,3.10
2023-04-02T01:46:48.604Z,3.60
2023-04-02T01:49:57.129Z,2.90
2023-04-02T01:53:03.953Z,2.60
2023-04-02T01:56:07.494Z,2.60
2023-04-02T01:59:11.367Z,3.20
2023-04-02T02:02:14.464Z,3.60
2023-04-02T02:05:21.268Z,2.90
2023-04-02T02:08:58.494Z,3.00
2023-04-02T02:12:02.962Z,3.20
2023-04-02T02:15:16.407Z,3.50
2023-04-02T02:18:23.658Z,4.10
2023-04-02T02:21:43.612Z,2.20
2023-04-02T02:24:47.210Z,1.80
2023-04-02T02:27:53.030Z,2.20
2023-04-02T02:31:02.690Z,2.10
2023-04-02T02:34:16.981Z,2.60
2023-04-02T02:37:27.507Z,2.90
2023-04-02T02:40:40.842Z,2.20
2023-04-02T02:43:51.245Z,2.10
2023-04-02T02:46:59.488Z,3.90
2023-04-02T02:50:06.641Z,2.60
2023-04-02T02:53:24.550Z,1.70
2023-04-02T02:56:29.866Z,1.70
2023-04-02T02:59:47.801Z,2.20
2023-04-02T03:02:52.909Z,2.20
2023-04-02T03:06:01.856Z,2.80
2023-04-02T03:09:19.244Z,1.70
2023-04-02T03:12:46.752Z,2.00
2023-04-02T03:16:13.030Z,1.80
2023-04-02T03:19:34.359Z,1.90
2023-04-02T03:23:19.208Z,2.10
2023-04-02T03:26:31.807Z,1.90
2023-04-02T03:29:39.669Z,3.00
2023-04-02T03:32:44.017Z,1.70
2023-04-02T03:35:56.326Z,1.70
2023-04-02T03:39:20.820Z,1.90
2023-04-02T03:42:26.340Z,1.30
2023-04-02T03:45:36.755Z,2.20
2023-04-02T03:48:46.336Z,1.40
2023-04-02T03:52:02.620Z,1.60
2023-04-02T03:55:28.832Z,1.90
2023-04-02T03:58:42.190Z,2.80
2023-04-02T04:01:55.634Z,1.00
2023-04-02T04:04:59.196Z,1.40
2023-04-02T04:08:05.743Z,1.50
2023-04-02T04:11:17.219Z,1.80
2023-04-02T04:14:29.000Z,1.10
2023-04-02T04:17:51.713Z,1.50
2023-04-02T04:20:59.117Z,1.70
2023-04-02T04:24:04.152Z,1.60
2023-04-02T04:27:17.237Z,1.90
2023-04-02T04:30:43.812Z,1.90
2023-04-02T04:33:54.924Z,1.40
2023-04-02T04:37:02.125Z,0.80
2023-04-02T04:40:20.305Z,3.30
2023-04-02T04:43:46.458Z,1.60
2023-04-02T04:47:11.917Z,1.40
2023-04-02T04:50:24.246Z,1.60
2023-04-02T04:53:29.230Z,1.40
2023-04-02T04:56:32.927Z,1.00
2023-04-02T04:59:49.904Z,1.40
2023-04-02T05:02:57.570Z,1.50
2023-04-02T05:06:41.935Z,1.70
2023-04-02T05:09:57.687Z,1.80
2023-04-02T05:13:39.375Z,1.30
2023-04-02T05:17:00.522Z,3.20
2023-04-02T05:20:28.343Z,1.40
2023-04-02T05:23:37.479Z,1.20
2023-04-02T05:26:45.963Z,2.00
2023-04-02T05:29:57.047Z,1.10
2023-04-02T05:33:07.997Z,0.90
2023-04-02T05:36:18.311Z,1.40
2023-04-02T05:39:23.408Z,0.90
2023-04-02T05:42:30.939Z,1.20
2023-04-02T05:45:37.581Z,2.70
2023-04-02T05:48:43.845Z,0.90
2023-04-02T05:51:50.796Z,0.90
2023-04-02T05:55:25.049Z,0.70
2023-04-02T05:58:37.162Z,1.30
2023-04-02T06:01:52.777Z,0.80
2023-04-02T06:05:02.165Z,1.30
2023-04-02T06:08:11.218Z,1.00
2023-04-02T06:11:22.475Z,0.70
2023-04-02T06:14:25.297Z,0.80
2023-04-02T06:17:28.019Z,3.30
2023-04-02T06:20:31.055Z,0.70
2023-04-02T06:23:52.426Z,0.70
2023-04-02T06:27:06.518Z,0.90
2023-04-02T06:30:17.330Z,2.50
2023-04-02T06:33:20.045Z,1.90
2023-04-02T06:36:25.596Z,3.30
2023-04-02T06:39:33.644Z,1.40
2023-04-02T06:42:40.551Z,0.80
2023-04-02T06:45:48.747Z,0.90
2023-04-02T06:48:56.901Z,1.10
2023-04-02T06:52:04.189Z,0.90
2023-04-02T06:55:27.732Z,0.70
2023-04-02T06:58:30.733Z,0.80
2023-04-02T07:01:51.302Z,2.50
2023-04-02T07:05:02.655Z,1.20
2023-04-02T07:08:05.788Z,1.30
2023-04-02T07:11:21.725Z,1.20
2023-04-02T07:14:24.316Z,2.20
2023-04-02T07:17:27.075Z,1.30
2023-04-02T07:20:32.972Z,1.20
2023-04-02T07:23:35.827Z,1.50
2023-04-02T07:26:38.913Z,1.80
2023-04-02T07:29:44.568Z,1.80
2023-04-02T07:32:47.799Z,2.90
2023-04-02T07:35:51.800Z,4.00
2023-04-02T07:38:54.758Z,2.30
2023-04-02T07:42:03.779Z,1.50
2023-04-02T07:45:07.046Z,1.30
2023-04-02T07:48:13.391Z,0.70
2023-04-02T07:51:21.906Z,0.90
2023-04-02T07:54:24.529Z,1.80
2023-04-02T07:57:27.466Z,1.00
2023-04-02T08:00:30.131Z,1.40
2023-04-02T08:03:33.008Z,1.80
2023-04-02T08:06:35.813Z,1.60
2023-04-02T08:09:38.432Z,2.50
2023-04-02T08:12:41.044Z,0.70
2023-04-02T08:15:44.420Z,1.50
2023-04-02T08:18:47.944Z,1.00
2023-04-02T08:21:52.034Z,1.10
2023-04-02T08:24:54.981Z,1.20
2023-04-02T08:27:57.666Z,2.30
2023-04-02T08:31:00.945Z,1.10
2023-04-02T08:34:04.673Z,1.20
2023-04-02T08:37:09.553Z,1.20
2023-04-02T08:40:27.401Z,0.90
2023-04-02T08:43:46.901Z,0.90
2023-04-02T08:46:55.367Z,1.30
2023-04-02T08:50:06.805Z,2.90
2023-04-02T08:53:19.806Z,2.30
2023-04-02T08:56:43.485Z,2.70
2023-04-02T08:59:48.780Z,1.70
2023-04-02T09:03:08.443Z,0.90
2023-04-02T09:06:16.657Z,1.10
2023-04-02T09:09:20.050Z,1.30
2023-04-02T09:12:32.949Z,1.60
2023-04-02T09:15:36.658Z,1.30
2023-04-02T09:18:40.400Z,1.90
2023-04-02T09:22:09.633Z,3.20
2023-04-02T09:25:19.612Z,1.10
2023-04-02T09:28:23.686Z,2.10
2023-04-02T09:31:34.506Z,1.10
2023-04-02T09:34:37.202Z,2.50
2023-04-02T09:37:40.473Z,1.60
2023-04-02T09:40:48.730Z,1.60
2023-04-02T09:44:21.828Z,1.10
2023-04-02T09:47:27.440Z,1.10
2023-04-02T09:50:34.094Z,1.10
2023-04-02T09:53:41.872Z,0.80
2023-04-02T09:57:03.798Z,2.40
2023-04-02T10:00:30.005Z,1.10
2023-04-02T10:03:35.489Z,1.50
2023-04-02T10:06:49.833Z,3.30
2023-04-02T10:09:58.995Z,2.10
2023-04-02T10:13:29.027Z,1.50
2023-04-02T10:16:37.086Z,0.90
2023-04-02T10:19:52.435Z,1.30
2023-04-02T10:22:55.103Z,1.70
2023-04-02T10:26:08.270Z,1.70
2023-04-02T10:29:37.424Z,1.10
2023-04-02T10:32:46.653Z,0.90
2023-04-02T10:36:09.333Z,1.00
2023-04-02T10:39:29.805Z,4.20
2023-04-02T10:43:08.483Z,1.30
2023-04-02T10:46:17.525Z,2.20
2023-04-02T10:49:42.172Z,2.40
2023-04-02T10:52:52.182Z,1.60
2023-04-02T10:56:03.636Z,1.30
2023-04-02T10:59:18.335Z,1.60
2023-04-02T11:02:41.357Z,1.00
2023-04-02T11:05:47.141Z,3.90
2023-04-02T11:08:55.536Z,1.30
2023-04-02T11:12:01.733Z,1.50
2023-04-02T11:15:13.879Z,3.00
2023-04-02T11:18:29.531Z,1.40
2023-04-02T11:22:06.543Z,1.50
2023-04-02T11:25:21.963Z,1.30
2023-04-02T11:28:30.567Z,1.10
2023-04-02T11:31:33.779Z,2.00
2023-04-02T11:34:43.036Z,1.20
2023-04-02T11:37:46.258Z,2.00
2023-04-02T11:40:50.513Z,1.40
2023-04-02T11:44:01.186Z,1.30
2023-04-02T11:47:20.839Z,1.90
2023-04-02T11:50:36.074Z,1.30
2023-04-02T11:53:42.729Z,0.90
2023-04-02T11:56:51.705Z,1.60
2023-04-02T12:00:21.754Z,1.30
2023-04-02T12:03:44.445Z,1.60
2023-04-02T12:07:06.425Z,1.70
2023-04-02T12:10:19.567Z,2.90
2023-04-02T12:13:40.628Z,1.60
2023-04-02T12:16:43.364Z,1.20
2023-04-02T12:19:54.481Z,3.00
2023-04-02T12:23:00.690Z,1.40
2023-04-02T12:26:09.361Z,1.40
2023-04-02T12:32:31.414Z,1.20
2023-04-02T12:35:36.232Z,1.10
2023-04-02T12:38:54.176Z,1.30
2023-04-02T12:41:57.101Z,0.70
2023-04-02T12:45:01.296Z,1.50
2023-04-02T12:48:06.218Z,1.80
2023-04-02T12:51:10.764Z,1.80
2023-04-02T12:54:17.593Z,1.20
2023-04-02T12:57:41.164Z,3.10
2023-04-02T13:00:44.046Z,1.30
2023-04-02T13:04:06.756Z,1.60
2023-04-02T13:07:19.911Z,2.10
2023-04-02T13:10:26.263Z,1.30
2023-04-02T13:13:38.425Z,1.50
2023-04-02T13:16:41.258Z,1.60
2023-04-02T13:19:43.857Z,1.30
2023-04-02T13:22:46.497Z,2.00
2023-04-02T13:25:50.393Z,2.50
2023-04-02T13:28:59.693Z,2.20
2023-04-02T13:32:11.954Z,1.60
2023-04-02T13:35:14.689Z,1.50
2023-04-02T13:38:20.639Z,2.10
2023-04-02T13:41:32.428Z,1.30
2023-04-02T13:44:39.574Z,0.90
2023-04-02T13:47:42.190Z,1.90
2023-04-02T13:50:46.510Z,1.50
2023-04-02T13:53:54.052Z,2.60
2023-04-02T13:56:57.713Z,2.80
2023-04-02T14:00:00.281Z,2.30
2023-04-02T14:03:11.948Z,1.40
2023-04-02T14:06:19.921Z,1.50
2023-04-02T14:09:45.733Z,1.40
2023-04-02T14:13:11.216Z,1.30
2023-04-02T14:16:28.186Z,3.10
2023-04-02T14:19:48.860Z,1.40
2023-04-02T14:22:57.403Z,3.10
2023-04-02T14:26:09.213Z,1.50
2023-04-02T14:29:18.668Z,1.30
2023-04-02T14:32:29.222Z,1.30
2023-04-02T14:35:37.116Z,1.50
2023-04-02T14:38:43.474Z,1.70
2023-04-02T14:42:04.519Z,1.40
2023-04-02T14:45:21.799Z,1.40
2023-04-02T14:48:47.947Z,6.00
2023-04-02T14:52:04.386Z,1.10
2023-04-02T14:55:19.436Z,1.40
2023-04-02T14:58:35.967Z,1.70
2023-04-02T15:01:43.296Z,1.10
2023-04-02T15:04:55.930Z,1.90
2023-04-02T15:08:04.961Z,2.40
2023-04-02T15:11:36.247Z,2.40
2023-04-02T15:14:48.715Z,0.80
2023-04-02T15:17:51.328Z,1.40
2023-04-02T15:21:07.203Z,1.60
2023-04-02T15:24:31.980Z,1.70
2023-04-02T15:27:50.301Z,1.90
2023-04-02T15:30:59.912Z,1.50
2023-04-02T15:34:27.398Z,1.30
2023-04-02T15:37:35.680Z,1.10
2023-04-02T15:40:56.999Z,2.00
2023-04-02T15:44:06.588Z,1.30
2023-04-02T15:47:36.704Z,1.10
2023-04-02T15:51:31.980Z,1.20
2023-04-02T15:59:01.614Z,4.90
2023-04-02T16:02:20.833Z,6.00
2023-04-02T16:05:38.914Z,1.40
2023-04-02T16:08:58.718Z,1.60
2023-04-02T16:12:29.386Z,1.50
2023-04-02T16:15:39.746Z,1.50
2023-04-02T16:18:49.997Z,2.40
2023-04-02T16:22:11.430Z,2.90
2023-04-02T16:25:19.590Z,2.20
2023-04-02T16:28:33.761Z,2.30
2023-04-02T16:31:58.126Z,3.00
2023-04-02T16:35:41.024Z,5.10
2023-04-02T16:38:57.165Z,3.90
2023-04-02T16:42:15.759Z,5.30
2023-04-02T16:45:24.598Z,3.70
2023-04-02T16:48:42.955Z,4.60
2023-04-02T16:51:58.374Z,6.10
2023-04-02T16:55:25.974Z,3.70
2023-04-02T16:58:47.726Z,3.50
2023-04-02T17:02:13.498Z,3.10
2023-04-02T17:05:53.198Z,3.10
2023-04-02T17:09:04.322Z,3.60
2023-04-02T17:12:35.924Z,3.00
2023-04-02T17:15:40.666Z,2.60
2023-04-02T17:18:47.737Z,2.80
2023-04-02T17:21:54.954Z,2.00
2023-04-02T17:25:04.298Z,2.50
2023-04-02T17:28:11.504Z,1.70
2023-04-02T17:31:23.250Z,3.10
2023-04-02T17:34:25.942Z,3.20
2023-04-02T17:37:39.798Z,2.20
2023-04-02T17:40:59.164Z,6.90
2023-04-02T17:44:23.683Z,2.30
2023-04-02T17:47:44.718Z,2.30
2023-04-02T17:50:52.100Z,2.70
2023-04-02T17:54:03.785Z,2.80
2023-04-02T17:57:23.230Z,2.00
2023-04-02T18:04:39.549Z,2.10
2023-04-02T18:08:26.053Z,2.10
2023-04-02T18:11:42.991Z,3.50
2023-04-02T18:14:57.792Z,4.60
2023-04-02T18:18:21.930Z,2.30
2023-04-02T18:21:46.426Z,3.50
2023-04-02T18:25:20.872Z,3.70
2023-04-02T18:28:51.088Z,6.10
2023-04-02T18:32:04.768Z,7.70
2023-04-02T18:35:07.878Z,9.90
2023-04-02T18:38:37.360Z,5.90
2023-04-02T18:42:01.630Z,9.00
2023-04-02T18:45:14.023Z,5.20
2023-04-02T18:48:26.877Z,3.20
2023-04-02T18:51:36.669Z,3.00
2023-04-02T18:55:04.148Z,3.00
2023-04-02T18:58:16.077Z,2.30
2023-04-02T19:01:37.443Z,2.10
2023-04-02T19:04:49.738Z,3.90
2023-04-02T19:08:02.807Z,2.40
2023-04-02T19:11:17.871Z,1.90
2023-04-02T19:14:23.311Z,2.30
2023-04-02T19:17:39.509Z,2.50
2023-04-02T19:20:57.114Z,2.60
2023-04-02T19:24:18.971Z,2.50
2023-04-02T19:27:53.273Z,3.40
2023-04-02T19:31:24.743Z,5.00
2023-04-02T19:34:49.157Z,1.50
2023-04-02T19:38:09.479Z,2.30
2023-04-02T19:41:39.426Z,2.90
2023-04-02T19:47:46.940Z,1.50
2023-04-02T19:50:49.735Z,1.50
2023-04-02T19:53:52.397Z,2.40
2023-04-02T19:56:55.439Z,2.20
2023-04-02T19:59:58.048Z,1.30
2023-04-02T20:03:00.778Z,1.30
2023-04-02T20:06:21.448Z,1.60
2023-04-02T20:09:24.139Z,2.90
2023-04-02T20:12:26.734Z,2.30
2023-04-02T20:15:29.266Z,1.90
2023-04-02T20:18:32.080Z,2.30
2023-04-02T20:21:38.282Z,3.00
2023-04-02T20:24:42.679Z,2.80
2023-04-02T20:27:46.133Z,1.90
2023-04-02T20:30:50.387Z,1.90
2023-04-02T20:33:59.576Z,2.50
2023-04-02T20:37:02.577Z,2.40
2023-04-02T20:40:05.909Z,2.40
2023-04-02T20:43:09.934Z,2.30
2023-04-02T20:46:13.289Z,2.00
2023-04-02T20:49:16.008Z,1.70
2023-04-02T20:52:18.618Z,4.10
2023-04-02T20:55:21.814Z,2.30
2023-04-02T20:58:24.578Z,2.50
2023-04-02T21:01:29.443Z,2.40
2023-04-02T21:04:32.000Z,2.10
2023-04-02T21:07:34.752Z,3.50
2023-04-02T21:10:37.550Z,2.60
2023-04-02T21:13:44.211Z,2.00
2023-04-02T21:16:47.075Z,2.00
2023-04-02T21:19:49.560Z,1.70
2023-04-02T21:22:56.636Z,1.40
2023-04-02T21:26:02.108Z,1.70
2023-04-02T21:29:05.842Z,2.30
2023-04-02T21:32:20.365Z,1.30
2023-04-02T21:35:23.728Z,1.50
2023-04-02T21:38:26.549Z,1.30
2023-04-02T21:41:31.921Z,2.00
2023-04-02T21:44:34.490Z,1.70
2023-04-02T21:47:37.007Z,2.10
2023-04-02T21:50:39.576Z,1.60
2023-04-02T21:53:43.600Z,2.90
2023-04-02T21:56:47.088Z,1.80
2023-04-02T21:59:49.658Z,1.20
2023-04-02T22:02:52.315Z,3.50
2023-04-02T22:06:22.073Z,1.70
2023-04-02T22:09:26.781Z,1.80
2023-04-02T22:12:29.434Z,2.50
2023-04-02T22:15:33.952Z,2.50
2023-04-02T22:18:38.124Z,1.40
2023-04-02T22:21:41.539Z,1.70
2023-04-02T22:24:44.090Z,1.70
2023-04-02T22:27:46.779Z,1.40
2023-04-02T22:30:49.494Z,2.60
2023-04-02T22:33:53.674Z,2.20
2023-04-02T22:36:56.310Z,2.60
2023-04-02T22:40:01.066Z,1.60
2023-04-02T22:43:03.680Z,2.00
2023-04-02T22:46:08.925Z,3.10
2023-04-02T22:49:11.799Z,1.50
2023-04-02T22:52:14.507Z,1.70
2023-04-02T22:55:19.234Z,1.10
2023-04-02T22:58:21.868Z,1.80
2023-04-02T23:01:28.356Z,1.30
2023-04-02T23:04:31.070Z,1.50
2023-04-02T23:07:35.471Z,1.70
2023-04-02T23:10:38.340Z,1.30
2023-04-02T23:13:42.068Z,1.30
2023-04-02T23:16:44.658Z,1.20
2023-04-02T23:19:47.191Z,2.80
2023-04-02T23:22:49.764Z,1.10
2023-04-02T23:26:04.193Z,1.70
2023-04-02T23:29:06.868Z,3.40
2023-04-02T23:32:09.445Z,1.70
2023-04-02T23:35:12.122Z,1.40
2023-04-02T23:38:15.818Z,1.30
2023-04-02T23:41:18.429Z,1.30
2023-04-02T23:44:23.026Z,1.00
2023-04-02T23:47:25.710Z,2.50
2023-04-02T23:50:28.273Z,1.00
2023-04-02T23:53:30.839Z,2.70
2023-04-02T23:56:33.541Z,1.80
2023-04-02T23:59:40.369Z,2.40
